createdAt,value
2022-11-25T00:00:10.479Z,25.23
2022-11-25T00:01:10.498Z,25.21
2022-11-25T00:02:10.519Z,25.23
2022-11-25T00:03:10.516Z,25.23
2022-11-25T00:04:10.460Z,25.23
2022-11-25T00:05:10.858Z,25.24
2022-11-25T00:06:10.412Z,25.23
2022-11-25T00:07:10.482Z,25.23
2022-11-25T00:08:10.420Z,25.23
2022-11-25T00:09:10.437Z,25.23
2022-11-25T00:10:10.369Z,25.24
2022-11-25T00:11:10.414Z,25.24
2022-11-25T00:12:10.358Z,25.24
2022-11-25T00:13:10.366Z,25.27
2022-11-25T00:14:10.354Z,25.24
2022-11-25T00:15:10.364Z,25.24
2022-11-25T00:16:10.366Z,25.25
2022-11-25T00:17:10.353Z,25.25
2022-11-25T00:18:10.288Z,25.24
2022-11-25T00:19:10.330Z,25.23
2022-11-25T00:20:10.265Z,25.25
2022-11-25T00:21:10.738Z,25.27
2022-11-25T00:22:10.270Z,25.27
2022-11-25T00:23:10.287Z,25.27
2022-11-25T00:24:10.222Z,25.24
2022-11-25T00:25:10.247Z,25.25
2022-11-25T00:26:10.241Z,25.25
2022-11-25T00:27:11.503Z,25.27
2022-11-25T00:28:10.208Z,25.28
2022-11-25T00:29:10.232Z,25.27
2022-11-25T00:30:10.163Z,25.28
2022-11-25T00:31:10.214Z,25.32
2022-11-25T00:32:10.180Z,25.30
2022-11-25T00:33:10.155Z,25.28
2022-11-25T00:34:10.777Z,25.30
2022-11-25T00:35:10.135Z,25.27
2022-11-25T00:36:10.120Z,25.27
2022-11-25T00:37:10.661Z,25.27
2022-11-25T00:38:10.087Z,25.28
2022-11-25T00:39:10.090Z,25.28
2022-11-25T00:40:10.126Z,25.30
2022-11-25T00:41:10.110Z,25.27
2022-11-25T00:42:10.035Z,25.30
2022-11-25T00:43:10.074Z,25.28
2022-11-25T00:44:11.087Z,25.27
2022-11-25T00:45:10.030Z,25.27
2022-11-25T00:46:10.045Z,25.30
2022-11-25T00:47:10.007Z,25.25
2022-11-25T00:48:09.995Z,25.27
2022-11-25T00:49:10.050Z,25.30
2022-11-25T00:50:09.946Z,25.28
2022-11-25T00:51:09.994Z,25.30
2022-11-25T00:52:09.929Z,25.27
2022-11-25T00:53:11.690Z,25.28
2022-11-25T00:54:09.931Z,25.30
2022-11-25T00:55:09.941Z,25.28
2022-11-25T00:56:09.917Z,25.30
2022-11-25T00:57:09.872Z,25.30
2022-11-25T00:58:09.919Z,25.32
2022-11-25T00:59:10.511Z,25.32
2022-11-25T01:00:09.894Z,25.33
2022-11-25T01:01:09.895Z,25.35
2022-11-25T01:02:09.878Z,25.30
2022-11-25T01:03:09.838Z,25.32
2022-11-25T01:04:09.839Z,25.33
2022-11-25T01:05:09.786Z,25.30
2022-11-25T01:06:09.834Z,25.30
2022-11-25T01:07:09.830Z,25.28
2022-11-25T01:08:09.783Z,25.28
2022-11-25T01:09:09.787Z,25.28
2022-11-25T01:10:09.788Z,25.27
2022-11-25T01:11:09.722Z,25.28
2022-11-25T01:12:10.623Z,25.30
2022-11-25T01:13:09.729Z,25.30
2022-11-25T01:14:09.720Z,25.30
2022-11-25T01:15:09.707Z,25.30
2022-11-25T01:16:09.751Z,25.32
2022-11-25T01:17:09.673Z,25.33
2022-11-25T01:18:09.704Z,25.30
2022-11-25T01:19:09.653Z,25.28
2022-11-25T01:20:09.682Z,25.32
2022-11-25T01:21:09.642Z,25.30
2022-11-25T01:22:09.635Z,25.32
2022-11-25T01:23:10.639Z,25.30
2022-11-25T01:24:09.613Z,25.33
2022-11-25T01:25:09.575Z,25.28
2022-11-25T01:26:09.619Z,25.30
2022-11-25T01:27:09.585Z,25.33
2022-11-25T01:28:09.571Z,25.30
2022-11-25T01:29:10.389Z,25.32
2022-11-25T01:30:09.577Z,25.33
2022-11-25T01:31:09.537Z,25.28
2022-11-25T01:32:09.612Z,25.32
2022-11-25T01:33:09.517Z,25.30
2022-11-25T01:34:09.520Z,25.30
2022-11-25T01:35:09.511Z,25.32
2022-11-25T01:36:09.487Z,25.30
2022-11-25T01:37:09.465Z,25.30
2022-11-25T01:38:09.492Z,25.30
2022-11-25T01:39:09.431Z,25.33
2022-11-25T01:40:09.477Z,25.30
2022-11-25T01:41:09.435Z,25.32
2022-11-25T01:42:09.441Z,25.30
2022-11-25T01:43:09.382Z,25.30
2022-11-25T01:44:09.429Z,25.28
2022-11-25T01:45:09.389Z,25.32
2022-11-25T01:46:09.464Z,25.30
2022-11-25T01:47:09.395Z,25.28
2022-11-25T01:48:09.372Z,25.33
2022-11-25T01:49:09.324Z,25.32
2022-11-25T01:50:09.367Z,25.28
2022-11-25T01:51:09.299Z,25.33
2022-11-25T01:52:09.383Z,25.32
2022-11-25T01:53:09.323Z,25.30
2022-11-25T01:54:09.299Z,25.28
2022-11-25T01:55:09.284Z,25.30
2022-11-25T01:56:09.273Z,25.30
2022-11-25T01:57:09.238Z,25.33
2022-11-25T01:58:10.182Z,25.32
2022-11-25T01:59:09.214Z,25.28
2022-11-25T02:00:09.258Z,25.33
2022-11-25T02:01:09.279Z,25.32
2022-11-25T02:02:09.304Z,25.30
2022-11-25T02:03:09.200Z,25.30
2022-11-25T02:04:09.207Z,25.28
2022-11-25T02:05:09.687Z,25.28
2022-11-25T02:06:09.213Z,25.32
2022-11-25T02:07:09.200Z,25.30
2022-11-25T02:08:09.173Z,25.32
2022-11-25T02:09:09.893Z,25.28
2022-11-25T02:10:09.145Z,25.32
2022-11-25T02:11:09.114Z,25.28
2022-11-25T02:12:09.108Z,25.32
2022-11-25T02:13:09.082Z,25.32
2022-11-25T02:14:09.113Z,25.32
2022-11-25T02:15:09.791Z,25.28
2022-11-25T02:16:09.123Z,25.30
2022-11-25T02:17:09.038Z,25.27
2022-11-25T02:18:09.070Z,25.27
2022-11-25T02:19:09.005Z,25.27
2022-11-25T02:20:09.066Z,25.28
2022-11-25T02:21:09.013Z,25.27
2022-11-25T02:22:08.999Z,25.25
2022-11-25T02:23:08.992Z,25.30
2022-11-25T02:24:08.980Z,25.27
2022-11-25T02:25:08.943Z,25.27
2022-11-25T02:26:09.676Z,25.28
2022-11-25T02:27:08.919Z,25.25
2022-11-25T02:28:08.963Z,25.30
2022-11-25T02:29:08.925Z,25.27
2022-11-25T02:30:08.921Z,25.27
2022-11-25T02:31:10.560Z,25.27
2022-11-25T02:32:08.972Z,25.25
2022-11-25T02:33:08.881Z,25.28
2022-11-25T02:34:08.874Z,25.27
2022-11-25T02:35:08.860Z,25.28
2022-11-25T02:36:08.852Z,25.24
2022-11-25T02:37:08.828Z,25.25
2022-11-25T02:38:08.857Z,25.24
2022-11-25T02:39:08.792Z,25.24
2022-11-25T02:40:08.849Z,25.24
2022-11-25T02:41:09.308Z,25.23
2022-11-25T02:42:08.789Z,25.21
2022-11-25T02:43:08.776Z,25.25
2022-11-25T02:44:08.768Z,25.21
2022-11-25T02:45:08.727Z,25.24
2022-11-25T02:46:08.817Z,25.24
2022-11-25T02:47:08.757Z,25.23
2022-11-25T02:48:08.738Z,25.24
2022-11-25T02:49:09.983Z,25.24
2022-11-25T02:50:08.729Z,25.24
2022-11-25T02:51:08.686Z,25.24
2022-11-25T02:52:08.708Z,25.23
2022-11-25T02:53:08.673Z,25.24
2022-11-25T02:54:08.696Z,25.23
2022-11-25T02:55:08.656Z,25.24
2022-11-25T02:56:08.639Z,25.21
2022-11-25T02:57:08.612Z,25.23
2022-11-25T02:58:08.674Z,25.23
2022-11-25T02:59:09.363Z,25.21
2022-11-25T03:00:08.652Z,25.21
2022-11-25T03:01:08.649Z,25.20
2022-11-25T03:02:09.008Z,25.20
2022-11-25T03:03:08.566Z,25.21
2022-11-25T03:04:08.563Z,25.21
2022-11-25T03:05:09.028Z,25.21
2022-11-25T03:06:08.561Z,25.20
2022-11-25T03:07:09.088Z,25.20
2022-11-25T03:08:08.539Z,25.21
2022-11-25T03:09:08.518Z,25.18
2022-11-25T03:10:08.816Z,25.21
2022-11-25T03:11:08.480Z,25.18
2022-11-25T03:12:08.476Z,25.18
2022-11-25T03:13:08.439Z,25.18
2022-11-25T03:14:08.484Z,25.21
2022-11-25T03:15:08.412Z,25.18
2022-11-25T03:16:08.632Z,25.20
2022-11-25T03:17:08.416Z,25.20
2022-11-25T03:18:08.410Z,25.18
2022-11-25T03:19:08.382Z,25.18
2022-11-25T03:20:08.411Z,25.17
2022-11-25T03:21:08.388Z,25.15
2022-11-25T03:22:08.393Z,25.18
2022-11-25T03:23:08.329Z,25.15
2022-11-25T03:24:08.417Z,25.18
2022-11-25T03:25:08.309Z,25.20
2022-11-25T03:26:08.367Z,25.17
2022-11-25T03:27:08.286Z,25.20
2022-11-25T03:28:08.304Z,25.20
2022-11-25T03:29:08.289Z,25.18
2022-11-25T03:30:08.283Z,25.18
2022-11-25T03:31:08.268Z,25.18
2022-11-25T03:32:09.814Z,25.20
2022-11-25T03:33:08.220Z,25.20
2022-11-25T03:34:08.268Z,25.18
2022-11-25T03:35:08.239Z,25.17
2022-11-25T03:36:08.231Z,25.17
2022-11-25T03:37:08.198Z,25.18
2022-11-25T03:38:08.222Z,25.18
2022-11-25T03:39:08.158Z,25.18
2022-11-25T03:40:08.199Z,25.20
2022-11-25T03:41:08.162Z,25.20
2022-11-25T03:42:08.172Z,25.18
2022-11-25T03:43:08.160Z,25.15
2022-11-25T03:44:08.134Z,25.21
2022-11-25T03:45:08.181Z,25.21
2022-11-25T03:46:08.265Z,25.20
2022-11-25T03:47:08.074Z,25.20
2022-11-25T03:48:10.962Z,25.18
2022-11-25T03:49:08.096Z,25.17
2022-11-25T03:50:08.067Z,25.18
2022-11-25T03:51:08.030Z,25.20
2022-11-25T03:52:08.078Z,25.20
2022-11-25T03:53:08.037Z,25.20
2022-11-25T03:54:08.207Z,25.17
2022-11-25T03:55:08.014Z,25.18
2022-11-25T03:56:08.044Z,25.20
2022-11-25T03:57:08.834Z,25.18
2022-11-25T03:58:08.012Z,25.18
2022-11-25T03:59:07.949Z,25.15
2022-11-25T04:00:08.006Z,25.18
2022-11-25T04:01:08.036Z,25.17
2022-11-25T04:02:08.022Z,25.15
2022-11-25T04:03:07.943Z,25.15
2022-11-25T04:04:07.922Z,25.17
2022-11-25T04:05:07.881Z,25.13
2022-11-25T04:06:07.928Z,25.14
2022-11-25T04:07:07.862Z,25.14
2022-11-25T04:08:08.022Z,25.13
2022-11-25T04:09:07.874Z,25.13
2022-11-25T04:10:07.886Z,25.10
2022-11-25T04:11:07.848Z,25.10
2022-11-25T04:12:07.839Z,25.09
2022-11-25T04:13:07.814Z,25.10
2022-11-25T04:14:07.847Z,25.13
2022-11-25T04:15:07.777Z,25.13
2022-11-25T04:16:07.822Z,25.10
2022-11-25T04:17:07.827Z,25.10
2022-11-25T04:18:07.771Z,25.08
2022-11-25T04:19:08.543Z,25.08
2022-11-25T04:20:07.790Z,25.08
2022-11-25T04:21:07.713Z,25.08
2022-11-25T04:22:07.762Z,25.05
2022-11-25T04:23:07.717Z,25.08
2022-11-25T04:24:08.148Z,25.05
2022-11-25T04:25:07.674Z,25.06
2022-11-25T04:26:07.717Z,25.03
2022-11-25T04:27:07.652Z,25.05
2022-11-25T04:28:07.694Z,25.02
2022-11-25T04:29:07.653Z,25.02
2022-11-25T04:30:07.658Z,25.00
2022-11-25T04:31:07.697Z,24.99
2022-11-25T04:32:07.638Z,25.02
2022-11-25T04:33:07.587Z,24.99
2022-11-25T04:34:07.656Z,25.00
2022-11-25T04:35:07.565Z,25.02
2022-11-25T04:36:07.608Z,25.00
2022-11-25T04:37:07.572Z,24.98
2022-11-25T04:38:07.559Z,25.00
2022-11-25T04:39:07.974Z,24.99
2022-11-25T04:40:07.567Z,25.00
2022-11-25T04:41:07.529Z,24.96
2022-11-25T04:42:07.518Z,24.98
2022-11-25T04:43:10.535Z,24.98
2022-11-25T04:44:07.499Z,24.98
2022-11-25T04:45:22.959Z,24.98
2022-11-25T04:46:15.156Z,24.98
2022-11-25T04:47:07.490Z,24.98
2022-11-25T04:48:07.483Z,24.98
2022-11-25T04:49:07.451Z,24.95
2022-11-25T04:50:07.449Z,24.96
2022-11-25T04:51:07.454Z,24.99
2022-11-25T04:52:07.412Z,24.99
2022-11-25T04:53:07.376Z,24.98
2022-11-25T04:54:07.434Z,24.98
2022-11-25T04:55:08.665Z,24.95
2022-11-25T04:56:07.372Z,24.95
2022-11-25T04:57:07.334Z,24.95
2022-11-25T04:58:07.375Z,24.96
2022-11-25T04:59:07.316Z,24.93
2022-11-25T05:00:07.354Z,24.93
2022-11-25T05:01:07.427Z,24.95
2022-11-25T05:02:07.359Z,24.93
2022-11-25T05:03:07.300Z,24.90
2022-11-25T05:04:07.310Z,24.91
2022-11-25T05:05:07.250Z,24.93
2022-11-25T05:06:07.522Z,24.91
2022-11-25T05:07:07.750Z,24.90
2022-11-25T05:08:07.287Z,24.90
2022-11-25T05:09:07.231Z,24.91
2022-11-25T05:10:07.223Z,24.88
2022-11-25T05:11:07.215Z,24.88
2022-11-25T05:12:07.198Z,24.91
2022-11-25T05:13:08.914Z,24.90
2022-11-25T05:14:07.153Z,24.87
2022-11-25T05:15:07.416Z,24.88
2022-11-25T05:16:07.132Z,24.88
2022-11-25T05:17:07.223Z,24.90
2022-11-25T05:18:07.137Z,24.88
2022-11-25T05:19:07.765Z,24.88
2022-11-25T05:20:07.200Z,24.91
2022-11-25T05:21:07.134Z,24.90
2022-11-25T05:22:07.073Z,24.91
2022-11-25T05:23:07.111Z,24.91
2022-11-25T05:24:07.045Z,24.91
2022-11-25T05:25:08.090Z,24.90
2022-11-25T05:26:07.053Z,24.90
2022-11-25T05:27:07.075Z,24.93
2022-11-25T05:28:07.005Z,24.91
2022-11-25T05:29:07.037Z,24.91
2022-11-25T05:30:07.010Z,24.90
2022-11-25T05:31:07.187Z,24.90
2022-11-25T05:32:07.007Z,24.90
2022-11-25T05:33:07.020Z,24.91
2022-11-25T05:34:06.956Z,24.90
2022-11-25T05:35:08.659Z,24.90
2022-11-25T05:36:06.919Z,24.93
2022-11-25T05:37:06.936Z,24.91
2022-11-25T05:38:06.926Z,24.88
2022-11-25T05:39:06.933Z,24.93
2022-11-25T05:40:06.906Z,24.93
2022-11-25T05:41:06.920Z,24.93
2022-11-25T05:42:06.884Z,24.91
2022-11-25T05:43:08.430Z,24.88
2022-11-25T05:44:06.877Z,24.90
2022-11-25T05:45:06.884Z,24.91
2022-11-25T05:46:06.968Z,24.90
2022-11-25T05:47:06.859Z,24.90
2022-11-25T05:48:06.793Z,24.91
2022-11-25T05:49:06.841Z,24.93
2022-11-25T05:50:06.797Z,24.90
2022-11-25T05:51:06.887Z,24.93
2022-11-25T05:52:08.343Z,24.95
2022-11-25T05:53:06.793Z,24.96
2022-11-25T05:54:06.731Z,24.96
2022-11-25T05:55:06.775Z,24.95
2022-11-25T05:56:06.706Z,24.93
2022-11-25T05:57:06.735Z,24.91
2022-11-25T05:58:06.729Z,24.93
2022-11-25T05:59:06.730Z,24.91
2022-11-25T06:00:06.665Z,24.95
2022-11-25T06:01:06.683Z,24.93
2022-11-25T06:02:06.703Z,24.90
2022-11-25T06:03:06.842Z,24.91
2022-11-25T06:04:07.951Z,24.90
2022-11-25T06:05:06.667Z,24.90
2022-11-25T06:06:06.606Z,24.88
2022-11-25T06:07:06.690Z,24.90
2022-11-25T06:08:06.581Z,24.88
2022-11-25T06:09:06.610Z,24.90
2022-11-25T06:10:06.587Z,24.87
2022-11-25T06:11:06.577Z,24.87
2022-11-25T06:12:06.562Z,24.91
2022-11-25T06:13:08.404Z,24.90
2022-11-25T06:14:06.537Z,24.90
2022-11-25T06:15:06.563Z,24.88
2022-11-25T06:16:07.934Z,24.90
2022-11-25T06:17:06.876Z,24.90
2022-11-25T06:18:06.503Z,24.90
2022-11-25T06:19:06.529Z,24.88
2022-11-25T06:20:06.481Z,24.93
2022-11-25T06:21:06.499Z,24.87
2022-11-25T06:22:06.430Z,24.87
2022-11-25T06:23:06.474Z,24.84
2022-11-25T06:24:06.412Z,24.84
2022-11-25T06:25:06.442Z,24.80
2022-11-25T06:26:06.431Z,24.80
2022-11-25T06:27:06.408Z,24.77
2022-11-25T06:28:13.879Z,24.71
2022-11-25T06:29:06.416Z,24.71
2022-11-25T06:30:06.366Z,24.67
2022-11-25T06:31:06.405Z,24.65
2022-11-25T06:32:06.353Z,24.64
2022-11-25T06:33:07.397Z,24.62
2022-11-25T06:34:06.305Z,24.61
2022-11-25T06:35:06.658Z,24.61
2022-11-25T06:36:06.285Z,24.61
2022-11-25T06:37:06.299Z,24.60
2022-11-25T06:38:06.287Z,24.61
2022-11-25T06:39:06.284Z,24.58
2022-11-25T06:40:06.272Z,24.62
2022-11-25T06:41:06.286Z,24.62
2022-11-25T06:42:06.220Z,24.62
2022-11-25T06:43:06.263Z,24.64
2022-11-25T06:44:06.205Z,24.62
2022-11-25T06:45:07.483Z,24.65
2022-11-25T06:46:06.250Z,24.65
2022-11-25T06:47:06.224Z,24.64
2022-11-25T06:48:06.161Z,24.65
2022-11-25T06:49:06.172Z,24.67
2022-11-25T06:50:06.162Z,24.67
2022-11-25T06:51:06.314Z,24.65
2022-11-25T06:52:06.141Z,24.68
2022-11-25T06:53:06.158Z,24.68
2022-11-25T06:54:06.102Z,24.69
2022-11-25T06:55:06.154Z,24.67
2022-11-25T06:56:06.074Z,24.69
2022-11-25T06:57:06.091Z,24.69
2022-11-25T06:58:28.132Z,24.68
2022-11-25T06:59:06.083Z,24.68
2022-11-25T07:00:06.061Z,24.68
2022-11-25T07:01:06.084Z,24.68
2022-11-25T07:02:06.069Z,24.69
2022-11-25T07:03:06.064Z,24.69
2022-11-25T07:04:06.030Z,24.73
2022-11-25T07:05:06.043Z,24.73
2022-11-25T07:06:05.987Z,24.71
2022-11-25T07:07:06.017Z,24.71
2022-11-25T07:08:05.947Z,24.71
2022-11-25T07:09:06.456Z,24.71
2022-11-25T07:10:05.958Z,24.76
2022-11-25T07:11:05.944Z,24.77
2022-11-25T07:12:06.188Z,24.71
2022-11-25T07:13:05.953Z,24.76
2022-11-25T07:14:05.885Z,24.77
2022-11-25T07:15:05.928Z,24.76
2022-11-25T07:16:05.969Z,24.73
2022-11-25T07:17:11.595Z,24.77
2022-11-25T07:18:07.017Z,24.73
2022-11-25T07:19:05.855Z,24.80
2022-11-25T07:20:05.848Z,24.78
2022-11-25T07:21:05.862Z,24.80
2022-11-25T07:22:05.813Z,24.77
2022-11-25T07:23:05.841Z,24.80
2022-11-25T07:24:05.855Z,24.83
2022-11-25T07:25:05.793Z,24.84
2022-11-25T07:26:05.783Z,24.81
2022-11-25T07:27:06.836Z,24.83
2022-11-25T07:28:05.760Z,24.84
2022-11-25T07:29:13.937Z,24.84
2022-11-25T07:32:10.252Z,24.84
2022-11-25T07:33:05.745Z,24.83
2022-11-25T07:34:05.697Z,24.85
2022-11-25T07:35:05.723Z,24.84
2022-11-25T07:36:05.670Z,24.84
2022-11-25T07:37:05.666Z,24.85
2022-11-25T07:38:05.655Z,24.83
2022-11-25T07:39:08.351Z,24.85
2022-11-25T07:40:05.632Z,24.85
2022-11-25T07:41:05.652Z,24.85
2022-11-25T07:42:05.899Z,24.84
2022-11-25T07:43:05.634Z,24.88
2022-11-25T07:44:05.564Z,24.90
2022-11-25T07:45:07.698Z,24.87
2022-11-25T07:46:05.620Z,24.85
2022-11-25T07:47:05.560Z,24.90
2022-11-25T07:48:05.548Z,24.87
2022-11-25T07:49:05.573Z,24.90
2022-11-25T07:50:05.505Z,24.90
2022-11-25T07:51:05.517Z,24.93
2022-11-25T07:52:05.519Z,24.93
2022-11-25T07:53:05.524Z,24.93
2022-11-25T07:54:05.461Z,24.93
2022-11-25T07:55:05.501Z,24.91
2022-11-25T07:56:05.437Z,24.93
2022-11-25T07:57:05.497Z,24.95
2022-11-25T07:58:05.456Z,24.90
2022-11-25T07:59:05.436Z,24.91
2022-11-25T08:00:05.426Z,24.93
2022-11-25T08:01:05.438Z,24.93
2022-11-25T08:02:07.111Z,24.95
2022-11-25T08:03:05.501Z,24.96
2022-11-25T08:04:05.362Z,24.93
2022-11-25T08:05:05.371Z,24.90
2022-11-25T08:06:05.357Z,24.95
2022-11-25T08:07:05.418Z,24.93
2022-11-25T08:08:05.437Z,24.93
2022-11-25T08:09:05.328Z,24.91
2022-11-25T08:10:05.322Z,24.93
2022-11-25T08:11:05.308Z,24.91
2022-11-25T08:12:06.168Z,24.91
2022-11-25T08:13:05.316Z,24.93
2022-11-25T08:14:05.249Z,24.95
2022-11-25T08:15:05.298Z,24.93
2022-11-25T08:16:05.345Z,24.95
2022-11-25T08:17:05.271Z,24.95
2022-11-25T08:18:05.231Z,24.96
2022-11-25T08:19:05.222Z,24.98
2022-11-25T08:20:05.215Z,24.98
2022-11-25T08:21:05.232Z,24.98
2022-11-25T08:22:05.890Z,24.99
2022-11-25T08:23:05.207Z,25.03
2022-11-25T08:24:05.164Z,25.00
2022-11-25T08:25:05.158Z,25.02
2022-11-25T08:26:05.146Z,25.05
2022-11-25T08:27:05.137Z,25.08
2022-11-25T08:28:05.124Z,25.03
2022-11-25T08:29:05.155Z,25.08
2022-11-25T08:30:05.413Z,25.05
2022-11-25T08:31:05.330Z,25.06
2022-11-25T08:32:10.307Z,25.08
2022-11-25T08:33:05.082Z,25.05
2022-11-25T08:34:05.813Z,25.06
2022-11-25T08:35:05.062Z,25.09
2022-11-25T08:36:05.042Z,25.09
2022-11-25T08:37:05.059Z,25.09
2022-11-25T08:38:04.998Z,25.06
2022-11-25T08:39:22.423Z,25.08
2022-11-25T08:40:05.090Z,25.08
2022-11-25T08:41:05.017Z,25.08
2022-11-25T08:42:04.964Z,25.08
2022-11-25T08:43:04.997Z,25.09
2022-11-25T08:44:04.936Z,25.08
2022-11-25T08:45:06.457Z,25.10
2022-11-25T08:46:05.002Z,25.09
2022-11-25T08:47:04.928Z,25.09
2022-11-25T08:48:04.913Z,25.06
2022-11-25T08:49:04.934Z,25.09
2022-11-25T08:50:04.867Z,25.06
2022-11-25T08:51:05.381Z,25.10
2022-11-25T08:52:04.845Z,25.10
2022-11-25T08:53:04.864Z,25.06
2022-11-25T08:54:04.869Z,25.08
2022-11-25T08:55:04.884Z,25.08
2022-11-25T08:56:04.802Z,25.06
2022-11-25T08:57:04.821Z,25.08
2022-11-25T08:58:04.911Z,25.06
2022-11-25T08:59:04.797Z,25.08
2022-11-25T09:00:04.788Z,25.08
2022-11-25T09:01:04.811Z,25.08
2022-11-25T09:02:04.808Z,25.06
2022-11-25T09:03:04.869Z,25.08
2022-11-25T09:04:04.750Z,25.06
2022-11-25T09:05:04.736Z,25.08
2022-11-25T09:06:04.724Z,25.08
2022-11-25T09:07:04.716Z,25.08
2022-11-25T09:08:04.775Z,25.10
2022-11-25T09:09:05.168Z,25.10
2022-11-25T09:10:04.661Z,25.13
2022-11-25T09:11:04.753Z,25.14
2022-11-25T09:12:04.660Z,25.15
2022-11-25T09:13:04.679Z,25.17
2022-11-25T09:14:06.481Z,25.20
2022-11-25T09:15:04.656Z,25.20
2022-11-25T09:16:04.688Z,25.20
2022-11-25T09:17:04.615Z,25.23
2022-11-25T09:18:04.597Z,25.25
2022-11-25T09:19:04.587Z,25.25
2022-11-25T09:20:05.046Z,25.27
2022-11-25T09:21:04.593Z,25.25
2022-11-25T09:22:04.531Z,25.25
2022-11-25T09:23:04.583Z,25.25
2022-11-25T09:24:04.945Z,25.27
2022-11-25T09:25:04.527Z,25.27
2022-11-25T09:26:04.994Z,25.30
2022-11-25T09:27:04.480Z,25.27
2022-11-25T09:28:04.524Z,25.30
2022-11-25T09:29:04.481Z,25.28
2022-11-25T09:30:04.517Z,25.30
2022-11-25T09:31:04.626Z,25.33
2022-11-25T09:32:04.453Z,25.33
2022-11-25T09:33:04.412Z,25.36
2022-11-25T09:34:04.456Z,25.36
2022-11-25T09:35:04.407Z,25.36
2022-11-25T09:36:06.547Z,25.36
2022-11-25T09:37:04.402Z,25.38
2022-11-25T09:38:04.387Z,25.39
2022-11-25T09:39:04.377Z,25.38
2022-11-25T09:40:25.528Z,25.39
2022-11-25T09:41:04.333Z,25.38
2022-11-25T09:42:04.387Z,25.38
2022-11-25T09:43:04.336Z,25.40
2022-11-25T09:44:04.323Z,25.40
2022-11-25T09:45:04.284Z,25.39
2022-11-25T09:46:04.373Z,25.42
2022-11-25T09:47:05.265Z,25.42
2022-11-25T09:48:04.310Z,25.43
2022-11-25T09:49:04.271Z,25.43
2022-11-25T09:50:04.261Z,25.45
2022-11-25T09:51:04.745Z,25.43
2022-11-25T09:52:04.242Z,25.45
2022-11-25T09:53:05.223Z,25.45
2022-11-25T09:54:04.248Z,25.45
2022-11-25T09:55:04.221Z,25.45
2022-11-25T09:56:04.226Z,25.45
2022-11-25T09:57:04.189Z,25.50
2022-11-25T09:58:04.195Z,25.46
2022-11-25T09:59:04.139Z,25.46
2022-11-25T10:00:04.183Z,25.43
2022-11-25T10:01:05.655Z,25.45
2022-11-25T10:02:04.163Z,25.45
2022-11-25T10:03:04.287Z,25.47
2022-11-25T10:04:04.115Z,25.46
2022-11-25T10:05:04.396Z,25.47
2022-11-25T10:06:04.183Z,25.50
2022-11-25T10:07:04.053Z,25.47
2022-11-25T10:08:04.097Z,25.50
2022-11-25T10:09:04.059Z,25.50
2022-11-25T10:10:04.048Z,25.46
2022-11-25T10:11:04.053Z,25.50
2022-11-25T10:12:04.029Z,25.46
2022-11-25T10:13:03.992Z,25.46
2022-11-25T10:14:04.057Z,25.47
2022-11-25T10:15:04.033Z,25.47
2022-11-25T10:16:04.017Z,25.47
2022-11-25T10:17:03.949Z,25.50
2022-11-25T10:18:03.995Z,25.46
2022-11-25T10:19:03.946Z,25.46
2022-11-25T10:20:03.973Z,25.47
2022-11-25T10:21:03.970Z,25.45
2022-11-25T10:22:03.924Z,25.46
2022-11-25T10:23:03.910Z,25.43
2022-11-25T10:24:03.900Z,25.47
2022-11-25T10:25:03.877Z,25.47
2022-11-25T10:26:03.936Z,25.46
2022-11-25T10:27:03.844Z,25.45
2022-11-25T10:28:03.884Z,25.46
2022-11-25T10:29:03.846Z,25.47
2022-11-25T10:30:06.231Z,25.46
2022-11-25T10:31:03.885Z,25.47
2022-11-25T10:32:03.819Z,25.51
2022-11-25T10:33:03.781Z,25.46
2022-11-25T10:34:03.827Z,25.46
2022-11-25T10:35:03.759Z,25.50
2022-11-25T10:36:03.832Z,25.50
2022-11-25T10:37:03.765Z,25.50
2022-11-25T10:38:03.752Z,25.47
2022-11-25T10:39:03.740Z,25.50
2022-11-25T10:40:03.747Z,25.47
2022-11-25T10:41:03.706Z,25.46
2022-11-25T10:42:03.740Z,25.46
2022-11-25T10:43:03.675Z,25.50
2022-11-25T10:44:03.737Z,25.45
2022-11-25T10:45:03.693Z,25.47
2022-11-25T10:46:03.764Z,25.46
2022-11-25T10:47:19.100Z,25.46
2022-11-25T10:48:03.679Z,25.46
2022-11-25T10:49:03.635Z,25.43
2022-11-25T10:50:03.626Z,25.47
2022-11-25T10:51:03.631Z,25.47
2022-11-25T10:52:03.605Z,25.46
2022-11-25T10:53:03.569Z,25.47
2022-11-25T10:54:03.670Z,25.45
2022-11-25T10:55:03.598Z,25.46
2022-11-25T10:56:03.624Z,25.43
2022-11-25T10:57:04.212Z,25.46
2022-11-25T10:58:03.546Z,25.45
2022-11-25T10:59:03.531Z,25.46
2022-11-25T11:00:03.521Z,25.47
2022-11-25T11:01:03.512Z,25.46
2022-11-25T11:02:03.671Z,25.46
2022-11-25T11:03:03.530Z,25.47
2022-11-25T11:04:03.483Z,25.51
2022-11-25T11:05:03.440Z,25.46
2022-11-25T11:06:03.484Z,25.50
2022-11-25T11:07:03.427Z,25.47
2022-11-25T11:08:03.467Z,25.45
2022-11-25T11:09:03.434Z,25.46
2022-11-25T11:10:03.447Z,25.47
2022-11-25T11:11:03.403Z,25.46
2022-11-25T11:12:03.398Z,25.46
2022-11-25T11:13:03.377Z,25.45
2022-11-25T11:14:03.403Z,25.46
2022-11-25T11:15:03.333Z,25.45
2022-11-25T11:16:03.455Z,25.45
2022-11-25T11:17:03.342Z,25.46
2022-11-25T11:18:03.331Z,25.45
2022-11-25T11:19:03.294Z,25.46
2022-11-25T11:20:03.345Z,25.42
2022-11-25T11:21:04.764Z,25.45
2022-11-25T11:22:03.292Z,25.43
2022-11-25T11:23:08.628Z,25.45
2022-11-25T11:24:04.269Z,25.45
2022-11-25T11:25:03.231Z,25.43
2022-11-25T11:26:03.271Z,25.45
2022-11-25T11:27:03.208Z,25.45
2022-11-25T11:28:03.264Z,25.43
2022-11-25T11:29:03.217Z,25.42
2022-11-25T11:30:03.210Z,25.43
2022-11-25T11:31:04.406Z,25.43
2022-11-25T11:32:03.184Z,25.43
2022-11-25T11:33:03.149Z,25.43
2022-11-25T11:34:03.212Z,25.40
2022-11-25T11:35:03.124Z,25.42
2022-11-25T11:36:03.171Z,25.45
2022-11-25T11:37:03.130Z,25.43
2022-11-25T11:38:03.121Z,25.43
2022-11-25T11:39:03.106Z,25.43
2022-11-25T11:40:03.111Z,25.43
2022-11-25T11:41:03.434Z,25.43
2022-11-25T11:42:03.105Z,25.42
2022-11-25T11:43:03.039Z,25.40
2022-11-25T11:44:03.090Z,25.42
2022-11-25T11:45:03.043Z,25.43
2022-11-25T11:46:03.055Z,25.43
2022-11-25T11:47:03.160Z,25.42
2022-11-25T11:48:03.014Z,25.43
2022-11-25T11:49:02.978Z,25.42
2022-11-25T11:50:03.037Z,25.43
2022-11-25T11:51:03.941Z,25.40
2022-11-25T11:52:02.971Z,25.42
2022-11-25T11:53:02.935Z,25.43
2022-11-25T11:54:02.976Z,25.39
2022-11-25T11:55:02.921Z,25.42
2022-11-25T11:56:33.464Z,25.39
2022-11-25T11:57:03.492Z,25.38
2022-11-25T11:58:02.907Z,25.39
2022-11-25T11:59:02.920Z,25.39
2022-11-25T12:00:02.909Z,25.40
2022-11-25T12:01:02.852Z,25.39
2022-11-25T12:02:02.988Z,25.39
2022-11-25T12:03:02.912Z,25.40
2022-11-25T12:04:02.871Z,25.39
2022-11-25T12:05:02.866Z,25.42
2022-11-25T12:06:02.825Z,25.39
2022-11-25T12:07:02.789Z,25.38
2022-11-25T12:08:02.906Z,25.38
2022-11-25T12:09:02.792Z,25.39
2022-11-25T12:10:02.781Z,25.39
2022-11-25T12:11:02.789Z,25.36
2022-11-25T12:12:02.762Z,25.36
2022-11-25T12:13:02.726Z,25.38
2022-11-25T12:14:02.766Z,25.36
2022-11-25T12:15:02.701Z,25.39
2022-11-25T12:16:02.796Z,25.38
2022-11-25T12:17:03.729Z,25.38
2022-11-25T12:18:02.698Z,25.39
2022-11-25T12:19:02.687Z,25.38
2022-11-25T12:20:02.705Z,25.40
2022-11-25T12:21:02.660Z,25.40
2022-11-25T12:22:02.689Z,25.39
2022-11-25T12:23:02.694Z,25.43
2022-11-25T12:24:02.635Z,25.39
2022-11-25T12:25:02.597Z,25.39
2022-11-25T12:26:02.642Z,25.39
2022-11-25T12:27:02.583Z,25.35
2022-11-25T12:28:02.620Z,25.36
2022-11-25T12:29:02.625Z,25.32
2022-11-25T12:30:02.574Z,25.32
2022-11-25T12:31:05.228Z,25.33
2022-11-25T12:32:02.572Z,25.33
2022-11-25T12:33:02.510Z,25.35
2022-11-25T12:34:02.557Z,25.33
2022-11-25T12:35:02.488Z,25.36
2022-11-25T12:36:02.545Z,25.33
2022-11-25T12:37:02.507Z,25.33
2022-11-25T12:38:02.489Z,25.33
2022-11-25T12:39:02.484Z,25.38
2022-11-25T12:40:02.464Z,25.38
2022-11-25T12:41:02.442Z,25.39
2022-11-25T12:42:03.911Z,25.38
2022-11-25T12:43:02.412Z,25.38
2022-11-25T12:44:02.449Z,25.42
2022-11-25T12:45:02.411Z,25.43
2022-11-25T12:46:02.509Z,25.39
2022-11-25T12:47:23.387Z,25.43
2022-11-25T12:48:02.378Z,25.42
2022-11-25T12:49:02.342Z,25.45
2022-11-25T12:50:02.389Z,25.40
2022-11-25T12:51:02.319Z,25.40
2022-11-25T12:52:02.380Z,25.43
2022-11-25T12:53:03.232Z,25.40
2022-11-25T12:54:02.318Z,25.42